ATH weather

Eleftherios Venizelos International Airport
Athens, Attica, Greece

Public forecast

Using degrees Celsius for public forecast. Weather courtesy of forecast.io.

METAR (pilot weather report)

Retrieved 2019/01/21 13:20 UTC (11 minutes ago):

LGAV 211320Z 09004KT 9999 FEW018 SCT025 14/08 Q1015 NOSIG

TAF (pilot weather forecast)

Retrieved 2019/01/21 12:12 UTC (1 hour ago):

TAF TAF LGAV 211100Z 2112/2212 VRB05KT 9999 FEW015 SCT025 PROB30 TEMPO 2112/2212 5000 RA SCT012 BKN020 BECMG 2208/2210 18015KT